Time;durP1;ratioP1;P1;durP2;ratioP2;P2;SDS_P1;SDS_P2;PMS_P1;PMS_P2;Temp;Humidity;BMP_temperature;BMP_pressure;BME280_temperature;BME280_humidity;BME280_pressure;Samples;Min_cycle;Max_cycle;Signal;HPM_P1;HPM_P2
2023/07/12 00:00:32;;;;;;;9.15;4.40;;;;;;;;;;626478;23;1393;-78
2023/07/12 00:00:48;;;;;;;4.75;3.90;;;;;;;;;;629379;23;858;-78
2023/07/12 00:01:03;;;;;;;4.70;3.90;;;;;;;;;;626835;23;1358;-78
2023/07/12 00:01:20;;;;;;;4.53;4.03;;;;;;;;;;628499;23;1223;-78
2023/07/12 00:01:35;;;;;;;5.10;3.90;;;;;;;;;;629443;23;1037;-77
2023/07/12 00:01:50;;;;;;;5.90;3.90;;;;;;;;;;628423;23;1185;-77
2023/07/12 00:02:07;;;;;;;5.00;3.90;;;;;;;;;;631179;23;854;-79
2023/07/12 00:02:23;;;;;;;4.40;3.90;;;;;;;;;;633947;23;943;-77
2023/07/12 00:02:38;;;;;;;5.10;3.85;;;;;;;;;;632431;23;1001;-78
2023/07/12 00:02:58;;;;;;;5.00;3.73;;;;;;;;;;631429;23;1339;-78
2023/07/12 00:03:14;;;;;;;4.60;3.70;;;;;;;;;;631122;23;1102;-78
2023/07/12 00:03:30;;;;;;;5.68;3.67;;;;;;;;;;629323;23;1258;-78
2023/07/12 00:03:46;;;;;;;5.47;3.70;;;;;;;;;;632885;23;815;-77
2023/07/12 00:04:01;;;;;;;4.93;3.80;;;;;;;;;;633439;23;1208;-77
2023/07/12 00:04:16;;;;;;;5.13;3.85;;;;;;;;;;632947;23;810;-78
2023/07/12 00:04:32;;;;;;;4.63;3.73;;;;;;;;;;631277;23;1471;-78
2023/07/12 00:04:47;;;;;;;4.83;3.70;;;;;;;;;;634562;23;1059;-78
2023/07/12 00:05:03;;;;;;;6.28;3.80;;;;;;;;;;636376;23;884;-78
2023/07/12 00:05:19;;;;;;;6.53;3.80;;;;;;;;;;632438;23;1302;-77
2023/07/12 00:05:34;;;;;;;6.43;3.90;;;;;;;;;;631946;23;1072;-78
2023/07/12 00:05:51;;;;;;;5.60;3.83;;;;;;;;;;631202;23;1315;-79
2023/07/12 00:06:18;;;;;;;4.25;3.53;;;;;;;;;;627524;23;1259;-78
2023/07/12 00:06:36;;;;;;;5.20;3.70;;;;;;;;;;626612;23;1402;-78
2023/07/12 00:06:52;;;;;;;4.50;3.67;;;;;;;;;;622995;23;1229;-78
2023/07/12 00:07:12;;;;;;;4.23;3.50;;;;;;;;;;625229;23;996;-78
2023/07/12 00:07:27;;;;;;;4.72;3.55;;;;;;;;;;623328;23;1304;-78
2023/07/12 00:07:45;;;;;;;5.00;3.80;;;;;;;;;;624394;23;1278;-78
2023/07/12 00:08:02;;;;;;;5.63;3.78;;;;;;;;;;625483;23;1244;-78
2023/07/12 00:08:19;;;;;;;5.80;3.85;;;;;;;;;;625338;23;1027;-78
2023/07/12 00:08:35;;;;;;;5.70;3.60;;;;;;;;;;623521;23;1527;-78
2023/07/12 00:08:50;;;;;;;5.28;3.55;;;;;;;;;;622046;23;1710;-78
2023/07/12 00:09:12;;;;;;;5.13;3.70;;;;;;;;;;622583;23;851;-77
2023/07/12 00:09:27;;;;;;;4.80;3.72;;;;;;;;;;623461;23;965;-79
2023/07/12 00:09:42;;;;;;;5.63;3.90;;;;;;;;;;625306;23;1205;-78
2023/07/12 00:09:57;;;;;;;5.18;3.80;;;;;;;;;;627936;23;1354;-79
2023/07/12 00:10:20;;;;;;;4.60;3.60;;;;;;;;;;626605;23;1184;-78
2023/07/12 00:10:36;;;;;;;4.40;3.40;;;;;;;;;;628206;23;1118;-79
2023/07/12 00:10:53;;;;;;;3.92;3.30;;;;;;;;;;628875;23;1223;-78
2023/07/12 00:11:17;;;;;;;4.70;3.67;;;;;;;;;;625711;23;1322;-78
2023/07/12 00:11:32;;;;;;;4.68;3.45;;;;;;;;;;622438;23;1305;-78
2023/07/12 00:11:48;;;;;;;5.10;3.20;;;;;;;;;;625513;23;1393;-77
2023/07/12 00:12:03;;;;;;;4.83;3.47;;;;;;;;;;625300;23;807;-78
2023/07/12 00:12:18;;;;;;;5.30;3.70;;;;;;;;;;623202;23;1164;-79
2023/07/12 00:12:34;;;;;;;5.55;3.80;;;;;;;;;;623816;23;1189;-78
2023/07/12 00:12:50;;;;;;;4.33;3.77;;;;;;;;;;622239;23;1207;-78
2023/07/12 00:13:05;;;;;;;4.10;3.53;;;;;;;;;;624401;23;1025;-78
2023/07/12 00:13:23;;;;;;;4.47;3.50;;;;;;;;;;625592;23;800;-78
2023/07/12 00:13:38;;;;;;;5.35;3.45;;;;;;;;;;630015;23;899;-78
2023/07/12 00:13:55;;;;;;;4.90;3.50;;;;;;;;;;629686;23;1181;-78
2023/07/12 00:14:10;;;;;;;4.47;3.58;;;;;;;;;;629894;23;867;-77
2023/07/12 00:14:25;;;;;;;4.53;3.63;;;;;;;;;;632348;23;958;-79
2023/07/12 00:14:40;;;;;;;5.20;3.63;;;;;;;;;;635167;23;835;-78
2023/07/12 00:14:56;;;;;;;5.38;3.50;;;;;;;;;;637347;23;1254;-78
2023/07/12 00:15:19;;;;;;;4.40;3.30;;;;;;;;;;636416;23;1301;-78
2023/07/12 00:15:36;;;;;;;4.10;3.40;;;;;;;;;;631676;23;1386;-78
2023/07/12 00:15:52;;;;;;;5.10;3.58;;;;;;;;;;626398;23;1274;-78
2023/07/12 00:16:18;;;;;;;5.80;3.80;;;;;;;;;;622890;23;1303;-79
2023/07/12 00:16:36;;;;;;;5.00;3.75;;;;;;;;;;624050;23;874;-79
2023/07/12 00:16:52;;;;;;;4.60;3.50;;;;;;;;;;624813;23;878;-78
2023/07/12 00:17:09;;;;;;;4.22;3.40;;;;;;;;;;626315;23;1338;-78
2023/07/12 00:17:25;;;;;;;4.40;3.70;;;;;;;;;;626898;23;969;-77
2023/07/12 00:17:40;;;;;;;4.03;3.63;;;;;;;;;;632438;23;1287;-77
2023/07/12 00:17:56;;;;;;;5.32;3.70;;;;;;;;;;630721;23;1475;-79
2023/07/12 00:18:16;;;;;;;6.63;3.75;;;;;;;;;;631362;23;803;-78
2023/07/12 00:18:31;;;;;;;6.07;3.40;;;;;;;;;;629732;23;1078;-78
2023/07/12 00:18:46;;;;;;;5.15;3.40;;;;;;;;;;626578;23;1267;-78
2023/07/12 00:19:02;;;;;;;4.03;3.63;;;;;;;;;;626815;23;1179;-78
2023/07/12 00:19:18;;;;;;;4.32;3.70;;;;;;;;;;623547;23;1349;-78
2023/07/12 00:19:33;;;;;;;5.35;3.88;;;;;;;;;;624427;23;1196;-78
2023/07/12 00:19:48;;;;;;;4.70;3.50;;;;;;;;;;627115;23;807;-78
2023/07/12 00:20:15;;;;;;;4.27;3.33;;;;;;;;;;628760;23;946;-78
2023/07/12 00:20:35;;;;;;;4.20;3.67;;;;;;;;;;628506;23;1076;-78
2023/07/12 00:20:52;;;;;;;4.47;3.55;;;;;;;;;;627214;23;1381;-79
2023/07/12 00:21:11;;;;;;;4.55;3.60;;;;;;;;;;626972;23;1408;-78
2023/07/12 00:21:29;;;;;;;5.00;3.50;;;;;;;;;;627864;23;1463;-78
2023/07/12 00:21:44;;;;;;;4.88;3.30;;;;;;;;;;625962;23;1231;-78
2023/07/12 00:22:20;;;;;;;4.70;3.50;;;;;;;;;;625737;23;1065;-78
2023/07/12 00:22:35;;;;;;;5.03;3.50;;;;;;;;;;625871;23;1220;-78
2023/07/12 00:22:51;;;;;;;4.83;3.67;;;;;;;;;;628246;23;843;-78
2023/07/12 00:23:10;;;;;;;5.05;3.55;;;;;;;;;;631341;23;1100;-78
2023/07/12 00:23:25;;;;;;;4.80;3.22;;;;;;;;;;631746;23;1545;-77
2023/07/12 00:23:41;;;;;;;4.68;3.35;;;;;;;;;;632000;23;1293;-79
2023/07/12 00:23:58;;;;;;;4.97;3.50;;;;;;;;;;629376;23;1156;-78
2023/07/12 00:24:13;;;;;;;4.60;3.50;;;;;;;;;;625278;23;1292;-78
2023/07/12 00:24:28;;;;;;;5.17;3.57;;;;;;;;;;625918;23;1206;-77
2023/07/12 00:24:44;;;;;;;5.50;3.67;;;;;;;;;;625614;23;1331;-77
2023/07/12 00:24:59;;;;;;;5.17;3.50;;;;;;;;;;628675;23;1132;-78
2023/07/12 00:25:15;;;;;;;4.90;3.40;;;;;;;;;;625341;23;1317;-78
2023/07/12 00:25:32;;;;;;;4.57;3.50;;;;;;;;;;623144;23;1155;-78
2023/07/12 00:25:49;;;;;;;5.47;3.60;;;;;;;;;;626163;23;1325;-78
2023/07/12 00:26:19;;;;;;;5.75;3.70;;;;;;;;;;626595;23;843;-78
2023/07/12 00:26:36;;;;;;;5.10;3.55;;;;;;;;;;624404;23;1308;-78
2023/07/12 00:26:51;;;;;;;4.35;3.30;;;;;;;;;;623804;23;1510;-78
2023/07/12 00:27:09;;;;;;;4.25;3.30;;;;;;;;;;623425;23;1291;-78
2023/07/12 00:27:24;;;;;;;4.45;3.40;;;;;;;;;;624466;23;1347;-77
2023/07/12 00:27:40;;;;;;;4.27;3.30;;;;;;;;;;622432;23;1251;-78
2023/07/12 00:27:55;;;;;;;3.83;3.33;;;;;;;;;;622707;23;1251;-77
2023/07/12 00:28:20;;;;;;;3.80;3.38;;;;;;;;;;622988;23;1326;-78
2023/07/12 00:28:36;;;;;;;4.88;3.38;;;;;;;;;;622026;23;1257;-78
2023/07/12 00:28:51;;;;;;;4.87;3.50;;;;;;;;;;621838;23;820;-78
2023/07/12 00:29:08;;;;;;;4.47;3.42;;;;;;;;;;622308;23;1192;-79
2023/07/12 00:29:23;;;;;;;4.10;3.38;;;;;;;;;;625354;23;1059;-78
2023/07/12 00:29:38;;;;;;;4.77;3.60;;;;;;;;;;625586;23;1157;-79
2023/07/12 00:29:54;;;;;;;6.97;3.53;;;;;;;;;;625519;23;962;-78
2023/07/12 00:30:22;;;;;;;6.60;3.50;;;;;;;;;;628256;23;1312;-77
2023/07/12 00:30:37;;;;;;;4.90;3.40;;;;;;;;;;625675;23;891;-77
2023/07/12 00:30:55;;;;;;;4.47;3.50;;;;;;;;;;627506;23;1193;-78
2023/07/12 00:31:10;;;;;;;5.07;3.60;;;;;;;;;;631614;23;874;-78
2023/07/12 00:31:25;;;;;;;5.27;3.73;;;;;;;;;;631433;23;1062;-79
2023/07/12 00:31:41;;;;;;;4.43;3.50;;;;;;;;;;631644;23;1334;-78
2023/07/12 00:31:56;;;;;;;3.93;3.30;;;;;;;;;;629908;23;831;-77
2023/07/12 00:32:11;;;;;;;3.90;3.33;;;;;;;;;;629460;23;1239;-78
2023/07/12 00:32:27;;;;;;;3.87;3.27;;;;;;;;;;628363;23;1190;-78
2023/07/12 00:32:42;;;;;;;3.92;3.35;;;;;;;;;;626420;23;1283;-78
2023/07/12 00:33:02;;;;;;;3.87;3.40;;;;;;;;;;627967;23;1172;-77
2023/07/12 00:33:19;;;;;;;3.97;3.58;;;;;;;;;;629904;23;1232;-78
2023/07/12 00:33:44;;;;;;;3.78;3.38;;;;;;;;;;631477;23;1172;-79
2023/07/12 00:33:59;;;;;;;5.40;3.58;;;;;;;;;;627861;23;1512;-78
2023/07/12 00:34:14;;;;;;;5.30;3.57;;;;;;;;;;629143;23;1173;-78
2023/07/12 00:34:30;;;;;;;4.80;3.20;;;;;;;;;;628766;23;1301;-78
2023/07/12 00:34:45;;;;;;;4.30;3.20;;;;;;;;;;627192;23;985;-77
2023/07/12 00:35:00;;;;;;;4.63;3.30;;;;;;;;;;623904;23;1263;-78
2023/07/12 00:35:19;;;;;;;5.10;3.43;;;;;;;;;;624355;23;1437;-78
2023/07/12 00:35:42;;;;;;;4.13;3.35;;;;;;;;;;626422;23;1212;-78
2023/07/12 00:35:57;;;;;;;4.53;3.45;;;;;;;;;;628672;23;886;-78
2023/07/12 00:36:32;;;;;;;4.53;3.60;;;;;;;;;;629933;23;1180;-78
2023/07/12 00:36:47;;;;;;;6.82;3.10;;;;;;;;;;626638;23;1329;-77
2023/07/12 00:37:03;;;;;;;6.90;3.30;;;;;;;;;;625775;23;1292;-77
2023/07/12 00:37:18;;;;;;;5.53;3.30;;;;;;;;;;622813;23;1283;-78
2023/07/12 00:37:33;;;;;;;5.82;3.47;;;;;;;;;;623268;23;1229;-77
2023/07/12 00:37:52;;;;;;;4.30;3.33;;;;;;;;;;620136;23;1495;-77
2023/07/12 00:38:22;;;;;;;4.20;3.20;;;;;;;;;;620191;23;1277;-77
2023/07/12 00:38:38;;;;;;;4.20;3.22;;;;;;;;;;623745;23;901;-77
2023/07/12 00:38:54;;;;;;;4.20;3.50;;;;;;;;;;620841;23;1458;-77
2023/07/12 00:39:10;;;;;;;4.70;3.53;;;;;;;;;;624550;23;1271;-77
2023/07/12 00:39:26;;;;;;;5.82;3.53;;;;;;;;;;624699;23;1323;-78
2023/07/12 00:39:41;;;;;;;5.27;3.47;;;;;;;;;;627514;23;1239;-77
2023/07/12 00:39:56;;;;;;;4.77;3.50;;;;;;;;;;623889;23;1247;-77
2023/07/12 00:40:53;;;;;;;4.38;3.30;;;;;;;;;;623551;23;1189;-78
2023/07/12 00:41:28;;;;;;;5.00;3.15;;;;;;;;;;611105;23;1369;-79
2023/07/12 00:41:56;;;;;;;4.10;3.30;;;;;;;;;;617804;23;1400;-78
2023/07/12 00:42:35;;;;;;;3.40;3.00;;;;;;;;;;622179;23;1491;-78
2023/07/12 00:43:14;;;;;;;3.97;3.20;;;;;;;;;;625849;23;1445;-78
2023/07/12 00:43:45;;;;;;;4.03;3.05;;;;;;;;;;628387;23;1323;-78
2023/07/12 00:44:18;;;;;;;4.15;3.20;;;;;;;;;;632686;23;1318;-78
2023/07/12 00:44:44;;;;;;;3.47;3.17;;;;;;;;;;632504;23;902;-78
2023/07/12 00:45:01;;;;;;;3.85;3.28;;;;;;;;;;629239;23;1311;-77
2023/07/12 00:45:17;;;;;;;4.22;3.20;;;;;;;;;;628925;23;1238;-78
2023/07/12 00:45:32;;;;;;;3.92;3.10;;;;;;;;;;629631;23;950;-79
2023/07/12 00:45:50;;;;;;;4.32;3.13;;;;;;;;;;626701;23;1366;-78
2023/07/12 00:46:20;;;;;;;4.70;3.30;;;;;;;;;;624966;23;1461;-78
2023/07/12 00:46:40;;;;;;;5.53;3.10;;;;;;;;;;627067;23;1329;-77
2023/07/12 00:46:58;;;;;;;6.90;3.33;;;;;;;;;;627367;23;1143;-78
2023/07/12 00:47:14;;;;;;;5.68;3.40;;;;;;;;;;629631;23;1045;-78
2023/07/12 00:47:32;;;;;;;4.70;3.45;;;;;;;;;;629820;23;993;-78
2023/07/12 00:47:49;;;;;;;4.43;3.30;;;;;;;;;;629836;23;1480;-78
2023/07/12 00:48:11;;;;;;;3.50;3.17;;;;;;;;;;632750;23;855;-78
2023/07/12 00:48:47;;;;;;;5.00;3.40;;;;;;;;;;629094;23;1406;-77
2023/07/12 00:49:02;;;;;;;4.10;3.40;;;;;;;;;;627309;23;1569;-78
2023/07/12 00:49:38;;;;;;;4.37;3.40;;;;;;;;;;628400;23;959;-78
2023/07/12 00:50:18;;;;;;;4.97;3.50;;;;;;;;;;628255;23;1450;-78
2023/07/12 00:50:33;;;;;;;4.72;3.38;;;;;;;;;;622748;23;1157;-78
2023/07/12 00:50:49;;;;;;;4.37;3.57;;;;;;;;;;626807;23;1222;-78
2023/07/12 00:51:19;;;;;;;4.73;3.67;;;;;;;;;;629706;23;1391;-78
2023/07/12 00:51:39;;;;;;;3.55;3.15;;;;;;;;;;627694;23;1333;-78
2023/07/12 00:52:11;;;;;;;3.75;2.95;;;;;;;;;;623522;23;1342;-77
2023/07/12 00:52:26;;;;;;;6.72;3.53;;;;;;;;;;624274;23;819;-77
2023/07/12 00:52:42;;;;;;;4.83;3.60;;;;;;;;;;624768;23;1165;-78
2023/07/12 00:52:57;;;;;;;4.78;3.63;;;;;;;;;;626940;23;955;-78
2023/07/12 00:53:19;;;;;;;4.50;3.60;;;;;;;;;;626213;23;1190;-78
2023/07/12 00:53:35;;;;;;;4.07;3.13;;;;;;;;;;625984;23;1470;-78
2023/07/12 00:53:50;;;;;;;4.33;3.00;;;;;;;;;;624707;23;1260;-79
2023/07/12 00:54:14;;;;;;;4.32;3.30;;;;;;;;;;622935;23;1289;-78
2023/07/12 00:54:59;;;;;;;4.95;3.60;;;;;;;;;;623697;23;902;-78
2023/07/12 00:55:52;;;;;;;4.35;3.30;;;;;;;;;;628912;23;1314;-78
2023/07/12 00:56:10;;;;;;;5.45;3.40;;;;;;;;;;634770;23;941;-78
2023/07/12 00:56:27;;;;;;;4.53;3.40;;;;;;;;;;631921;23;1482;-78
2023/07/12 00:56:43;;;;;;;4.35;3.60;;;;;;;;;;631538;23;1158;-78
2023/07/12 00:56:58;;;;;;;4.80;3.53;;;;;;;;;;629489;23;1258;-77
2023/07/12 00:57:13;;;;;;;4.35;3.40;;;;;;;;;;627977;23;1291;-78
2023/07/12 00:57:31;;;;;;;3.87;3.30;;;;;;;;;;629222;23;1220;-78
2023/07/12 00:57:47;;;;;;;4.60;3.30;;;;;;;;;;630168;23;859;-77
2023/07/12 00:58:02;;;;;;;4.33;3.33;;;;;;;;;;631464;23;1406;-78
2023/07/12 00:58:17;;;;;;;4.45;3.60;;;;;;;;;;631455;23;1092;-77
2023/07/12 00:58:42;;;;;;;4.67;3.90;;;;;;;;;;632124;23;1303;-78
2023/07/12 00:59:04;;;;;;;4.78;3.50;;;;;;;;;;632471;23;1231;-77
2023/07/12 00:59:23;;;;;;;5.28;3.40;;;;;;;;;;630074;23;1345;-78
2023/07/12 00:59:39;;;;;;;5.05;3.50;;;;;;;;;;627064;23;1326;-78
2023/07/12 00:59:59;;;;;;;4.73;3.40;;;;;;;;;;626009;23;1308;-78
2023/07/12 01:00:14;;;;;;;5.72;3.58;;;;;;;;;;622137;23;1331;-78
2023/07/12 01:00:30;;;;;;;4.97;3.53;;;;;;;;;;626126;23;1307;-78
2023/07/12 01:00:46;;;;;;;3.78;3.35;;;;;;;;;;626035;23;827;-78
2023/07/12 01:01:03;;;;;;;4.22;3.40;;;;;;;;;;623235;23;1253;-79
2023/07/12 01:01:20;;;;;;;4.40;3.53;;;;;;;;;;625995;23;899;-78
2023/07/12 01:01:37;;;;;;;5.10;3.42;;;;;;;;;;628619;23;871;-78
2023/07/12 01:01:58;;;;;;;4.75;3.50;;;;;;;;;;632102;23;945;-79
2023/07/12 01:02:15;;;;;;;3.90;3.47;;;;;;;;;;632500;23;1228;-78
2023/07/12 01:02:50;;;;;;;5.47;3.88;;;;;;;;;;634993;23;1417;-77
2023/07/12 01:03:06;;;;;;;5.13;3.60;;;;;;;;;;633272;23;1349;-78
2023/07/12 01:03:22;;;;;;;4.38;3.63;;;;;;;;;;634458;23;1183;-78
2023/07/12 01:03:42;;;;;;;4.30;3.47;;;;;;;;;;631161;23;1370;-78
2023/07/12 01:03:58;;;;;;;3.83;3.20;;;;;;;;;;631726;23;1159;-78
2023/07/12 01:04:20;;;;;;;3.40;3.10;;;;;;;;;;625976;23;1235;-78
2023/07/12 01:04:39;;;;;;;6.28;3.65;;;;;;;;;;628922;23;1348;-78
2023/07/12 01:04:58;;;;;;;5.50;3.50;;;;;;;;;;629122;23;1290;-78
2023/07/12 01:05:15;;;;;;;4.25;3.40;;;;;;;;;;629046;23;1233;-78
2023/07/12 01:05:31;;;;;;;4.53;3.50;;;;;;;;;;628393;23;1349;-78
2023/07/12 01:05:46;;;;;;;4.38;3.33;;;;;;;;;;629654;23;922;-78
2023/07/12 01:06:04;;;;;;;4.75;3.30;;;;;;;;;;628833;23;1361;-78
2023/07/12 01:06:20;;;;;;;5.13;3.45;;;;;;;;;;626437;23;1259;-77
2023/07/12 01:06:35;;;;;;;4.80;3.53;;;;;;;;;;620782;23;1160;-78
2023/07/12 01:06:51;;;;;;;5.03;3.60;;;;;;;;;;623407;23;1280;-78
2023/07/12 01:07:06;;;;;;;5.88;3.60;;;;;;;;;;622677;23;1212;-78
2023/07/12 01:07:23;;;;;;;5.73;3.70;;;;;;;;;;625907;23;1319;-78
2023/07/12 01:07:58;;;;;;;5.47;3.72;;;;;;;;;;626159;23;978;-77
2023/07/12 01:08:15;;;;;;;5.10;3.78;;;;;;;;;;626831;23;1308;-78
2023/07/12 01:08:30;;;;;;;4.95;4.00;;;;;;;;;;625802;23;1367;-78
2023/07/12 01:08:46;;;;;;;4.73;4.03;;;;;;;;;;624323;23;1167;-79
2023/07/12 01:09:21;;;;;;;6.00;4.00;;;;;;;;;;625409;23;802;-78
2023/07/12 01:09:37;;;;;;;4.90;4.10;;;;;;;;;;628380;23;1272;-78
2023/07/12 01:09:52;;;;;;;4.68;4.00;;;;;;;;;;628803;23;1219;-78
2023/07/12 01:10:08;;;;;;;5.50;4.10;;;;;;;;;;625507;23;1157;-78
2023/07/12 01:10:23;;;;;;;5.60;4.07;;;;;;;;;;623808;23;1207;-77
2023/07/12 01:10:38;;;;;;;5.03;3.90;;;;;;;;;;622131;23;1284;-78
2023/07/12 01:11:16;;;;;;;5.40;3.83;;;;;;;;;;619352;23;1173;-77
2023/07/12 01:11:31;;;;;;;4.65;4.00;;;;;;;;;;622933;23;1089;-79
2023/07/12 01:11:47;;;;;;;4.37;3.80;;;;;;;;;;622654;23;1461;-78
2023/07/12 01:12:03;;;;;;;4.80;3.97;;;;;;;;;;625960;23;1339;-79
2023/07/12 01:12:18;;;;;;;5.38;4.28;;;;;;;;;;627456;23;895;-78
2023/07/12 01:12:34;;;;;;;6.07;4.37;;;;;;;;;;625459;23;1175;-79
2023/07/12 01:12:49;;;;;;;5.57;4.13;;;;;;;;;;624514;23;1263;-78
2023/07/12 01:13:06;;;;;;;5.30;4.10;;;;;;;;;;624971;23;1360;-78
2023/07/12 01:13:22;;;;;;;6.38;4.30;;;;;;;;;;628336;23;1338;-78
2023/07/12 01:13:42;;;;;;;6.13;4.40;;;;;;;;;;625703;23;1342;-78
2023/07/12 01:13:58;;;;;;;6.43;4.60;;;;;;;;;;626968;23;894;-78
2023/07/12 01:14:17;;;;;;;6.50;4.68;;;;;;;;;;625017;23;1226;-78
2023/07/12 01:14:32;;;;;;;6.35;4.78;;;;;;;;;;628706;23;1080;-78
2023/07/12 01:14:48;;;;;;;6.15;4.68;;;;;;;;;;625399;23;1331;-78
2023/07/12 01:15:05;;;;;;;6.70;4.50;;;;;;;;;;628998;23;1173;-78
2023/07/12 01:15:21;;;;;;;6.22;4.57;;;;;;;;;;631340;23;1306;-79
2023/07/12 01:15:36;;;;;;;6.03;4.70;;;;;;;;;;628845;23;1188;-78
2023/07/12 01:15:52;;;;;;;5.50;4.60;;;;;;;;;;624868;23;1925;-79
2023/07/12 01:16:08;;;;;;;6.03;4.63;;;;;;;;;;625557;23;800;-79
2023/07/12 01:16:24;;;;;;;7.47;4.72;;;;;;;;;;621838;23;1574;-79
2023/07/12 01:16:43;;;;;;;6.60;4.60;;;;;;;;;;623003;23;954;-77
2023/07/12 01:17:01;;;;;;;6.20;4.32;;;;;;;;;;625397;23;1243;-78
2023/07/12 01:17:16;;;;;;;7.10;4.60;;;;;;;;;;626010;23;1429;-78
2023/07/12 01:17:31;;;;;;;5.68;4.47;;;;;;;;;;627748;23;1338;-78
2023/07/12 01:17:47;;;;;;;5.07;4.27;;;;;;;;;;631255;23;862;-78
2023/07/12 01:18:04;;;;;;;5.57;4.20;;;;;;;;;;628658;23;1235;-79
2023/07/12 01:18:20;;;;;;;5.63;4.50;;;;;;;;;;624954;23;1404;-79
2023/07/12 01:18:35;;;;;;;5.33;4.63;;;;;;;;;;625793;23;1045;-79
2023/07/12 01:18:51;;;;;;;5.22;4.65;;;;;;;;;;627554;23;1399;-79
2023/07/12 01:19:06;;;;;;;6.40;4.80;;;;;;;;;;629246;23;835;-78
2023/07/12 01:19:42;;;;;;;8.50;5.20;;;;;;;;;;630262;23;994;-78
2023/07/12 01:19:57;;;;;;;6.85;5.00;;;;;;;;;;628595;23;1427;-78
2023/07/12 01:20:12;;;;;;;7.07;4.97;;;;;;;;;;627604;23;1361;-78
2023/07/12 01:20:33;;;;;;;6.55;4.90;;;;;;;;;;628875;23;1219;-78
2023/07/12 01:21:03;;;;;;;7.00;5.00;;;;;;;;;;631363;23;1217;-79
2023/07/12 01:21:23;;;;;;;5.38;4.32;;;;;;;;;;632006;23;1343;-79
2023/07/12 01:21:44;;;;;;;5.57;4.57;;;;;;;;;;629022;23;1235;-78
2023/07/12 01:21:59;;;;;;;6.00;4.60;;;;;;;;;;628564;23;1340;-78
2023/07/12 01:22:14;;;;;;;5.70;4.53;;;;;;;;;;628873;23;859;-79
2023/07/12 01:22:30;;;;;;;5.85;4.60;;;;;;;;;;628334;23;1304;-78
2023/07/12 01:22:45;;;;;;;6.70;4.60;;;;;;;;;;631801;23;823;-78
2023/07/12 01:23:02;;;;;;;7.50;4.63;;;;;;;;;;628206;23;1370;-79
2023/07/12 01:23:17;;;;;;;7.20;5.07;;;;;;;;;;628844;23;874;-78
2023/07/12 01:23:33;;;;;;;6.30;5.00;;;;;;;;;;631061;23;867;-79
2023/07/12 01:23:49;;;;;;;6.33;4.80;;;;;;;;;;628551;23;1292;-79
2023/07/12 01:24:04;;;;;;;5.75;4.72;;;;;;;;;;628283;23;1259;-79
2023/07/12 01:24:22;;;;;;;6.10;4.77;;;;;;;;;;627484;23;1455;-79
2023/07/12 01:24:38;;;;;;;7.40;4.80;;;;;;;;;;624367;23;1302;-78
2023/07/12 01:24:53;;;;;;;7.00;4.97;;;;;;;;;;624909;23;1379;-78
2023/07/12 01:25:09;;;;;;;6.23;5.10;;;;;;;;;;625201;23;1367;-78
2023/07/12 01:25:37;;;;;;;6.72;5.00;;;;;;;;;;625135;23;919;-79
2023/07/12 01:26:20;;;;;;;7.47;4.90;;;;;;;;;;626810;23;1399;-78
2023/07/12 01:26:42;;;;;;;7.30;5.00;;;;;;;;;;628485;23;1291;-77
2023/07/12 01:27:00;;;;;;;7.50;5.10;;;;;;;;;;625948;23;1342;-79
2023/07/12 01:27:21;;;;;;;6.85;4.82;;;;;;;;;;626223;23;1390;-78
2023/07/12 01:27:36;;;;;;;7.32;4.13;;;;;;;;;;625518;23;1037;-78
2023/07/12 01:27:51;;;;;;;6.37;4.17;;;;;;;;;;628426;23;792;-78
2023/07/12 01:28:07;;;;;;;8.03;4.40;;;;;;;;;;625696;23;1275;-79
2023/07/12 01:28:23;;;;;;;7.82;4.10;;;;;;;;;;625892;23;1298;-78
2023/07/12 01:28:39;;;;;;;6.47;3.87;;;;;;;;;;626321;23;1122;-78
2023/07/12 01:28:57;;;;;;;7.53;3.90;;;;;;;;;;627442;23;1216;-79
2023/07/12 01:29:13;;;;;;;7.47;4.00;;;;;;;;;;627280;23;1350;-78
2023/07/12 01:29:29;;;;;;;6.07;4.03;;;;;;;;;;625568;23;1348;-78
2023/07/12 01:29:46;;;;;;;5.82;4.15;;;;;;;;;;623181;23;1336;-78
2023/07/12 01:30:03;;;;;;;5.95;3.80;;;;;;;;;;625787;23;1113;-79
2023/07/12 01:30:19;;;;;;;5.90;3.65;;;;;;;;;;626395;23;1019;-79
2023/07/12 01:30:35;;;;;;;6.78;3.72;;;;;;;;;;623974;23;823;-79
2023/07/12 01:30:50;;;;;;;8.37;3.90;;;;;;;;;;622529;23;1157;-78
2023/07/12 01:31:05;;;;;;;7.78;3.80;;;;;;;;;;621694;23;1180;-78
2023/07/12 01:31:22;;;;;;;5.63;3.60;;;;;;;;;;624102;23;986;-79
2023/07/12 01:31:38;;;;;;;6.03;3.60;;;;;;;;;;627297;23;1518;-78
2023/07/12 01:31:53;;;;;;;7.97;3.78;;;;;;;;;;630152;23;934;-78
2023/07/12 01:32:09;;;;;;;8.05;3.70;;;;;;;;;;628155;23;1262;-78
2023/07/12 01:32:26;;;;;;;7.27;3.60;;;;;;;;;;625355;23;1258;-79
2023/07/12 01:32:41;;;;;;;6.03;3.50;;;;;;;;;;624112;23;1232;-79
2023/07/12 01:32:57;;;;;;;5.47;3.40;;;;;;;;;;623102;23;1137;-79
2023/07/12 01:33:13;;;;;;;5.25;3.35;;;;;;;;;;626151;23;1009;-79
2023/07/12 01:33:28;;;;;;;5.53;3.37;;;;;;;;;;622930;23;1323;-78
2023/07/12 01:33:44;;;;;;;6.30;3.40;;;;;;;;;;622732;23;844;-78
2023/07/12 01:33:59;;;;;;;5.97;3.30;;;;;;;;;;621128;23;1196;-79
2023/07/12 01:34:16;;;;;;;5.38;3.10;;;;;;;;;;620688;23;1464;-79
2023/07/12 01:34:32;;;;;;;6.40;3.10;;;;;;;;;;620724;23;1236;-79
2023/07/12 01:34:47;;;;;;;7.27;3.30;;;;;;;;;;620034;23;1077;-78
2023/07/12 01:35:03;;;;;;;7.13;3.27;;;;;;;;;;619178;23;1388;-79
2023/07/12 01:35:18;;;;;;;7.00;3.30;;;;;;;;;;622362;23;1229;-80
2023/07/12 01:35:34;;;;;;;7.17;3.30;;;;;;;;;;622838;23;1223;-79
2023/07/12 01:35:49;;;;;;;6.80;3.10;;;;;;;;;;620961;23;1962;-79
2023/07/12 01:36:05;;;;;;;6.93;3.10;;;;;;;;;;622411;23;1267;-79
2023/07/12 01:36:22;;;;;;;7.13;3.00;;;;;;;;;;625763;23;1192;-78
2023/07/12 01:36:37;;;;;;;5.80;3.10;;;;;;;;;;622585;23;1279;-78
2023/07/12 01:36:53;;;;;;;6.00;3.17;;;;;;;;;;623044;23;823;-79
2023/07/12 01:37:08;;;;;;;5.83;3.00;;;;;;;;;;624386;23;1263;-79
2023/07/12 01:37:24;;;;;;;5.67;2.97;;;;;;;;;;626231;23;1336;-79
2023/07/12 01:37:39;;;;;;;5.83;3.10;;;;;;;;;;626261;23;1351;-78
2023/07/12 01:37:54;;;;;;;5.50;3.07;;;;;;;;;;626406;23;918;-79
2023/07/12 01:38:10;;;;;;;6.18;3.05;;;;;;;;;;627051;23;1341;-79
2023/07/12 01:38:25;;;;;;;6.13;3.00;;;;;;;;;;625573;23;1286;-79
2023/07/12 01:38:41;;;;;;;4.83;2.93;;;;;;;;;;623023;23;1330;-79
2023/07/12 01:38:58;;;;;;;5.03;2.92;;;;;;;;;;621712;23;1191;-78
2023/07/12 01:39:13;;;;;;;5.05;3.03;;;;;;;;;;621456;23;1244;-79
2023/07/12 01:39:29;;;;;;;6.22;3.03;;;;;;;;;;625014;23;1167;-79
2023/07/12 01:39:44;;;;;;;6.43;2.90;;;;;;;;;;624736;23;1307;-79
2023/07/12 01:39:59;;;;;;;4.47;2.83;;;;;;;;;;625583;23;1273;-79
2023/07/12 01:40:14;;;;;;;4.77;3.10;;;;;;;;;;621455;23;1269;-78
2023/07/12 01:40:30;;;;;;;5.97;3.13;;;;;;;;;;619576;23;1200;-78
2023/07/12 01:40:45;;;;;;;6.23;2.83;;;;;;;;;;625154;23;1239;-78
2023/07/12 01:41:01;;;;;;;5.53;2.83;;;;;;;;;;624852;23;1200;-78
2023/07/12 01:41:16;;;;;;;6.93;3.10;;;;;;;;;;624666;23;1358;-79
2023/07/12 01:41:32;;;;;;;7.20;2.90;;;;;;;;;;624774;23;886;-79
2023/07/12 01:41:47;;;;;;;6.18;2.80;;;;;;;;;;628030;23;1193;-78
2023/07/12 01:42:03;;;;;;;5.82;2.80;;;;;;;;;;628736;23;1265;-79
2023/07/12 01:42:18;;;;;;;5.30;2.70;;;;;;;;;;625836;23;1254;-78
2023/07/12 01:42:34;;;;;;;5.47;2.77;;;;;;;;;;625604;23;1260;-78
2023/07/12 01:42:49;;;;;;;6.15;2.85;;;;;;;;;;622398;23;1363;-78
2023/07/12 01:43:04;;;;;;;6.27;2.67;;;;;;;;;;625996;23;1252;-79
2023/07/12 01:43:22;;;;;;;7.03;2.50;;;;;;;;;;625142;23;926;-79
2023/07/12 01:43:37;;;;;;;7.85;2.80;;;;;;;;;;625433;23;1013;-79
2023/07/12 01:43:53;;;;;;;7.30;3.13;;;;;;;;;;626798;23;859;-79
2023/07/12 01:44:08;;;;;;;6.82;3.00;;;;;;;;;;629434;23;1016;-79
2023/07/12 01:44:23;;;;;;;7.07;2.73;;;;;;;;;;627395;23;1203;-78
2023/07/12 01:44:39;;;;;;;6.95;2.75;;;;;;;;;;630678;23;1276;-78
2023/07/12 01:44:54;;;;;;;6.43;2.83;;;;;;;;;;628472;23;1295;-78
2023/07/12 01:45:10;;;;;;;6.87;2.77;;;;;;;;;;626163;23;1271;-79
2023/07/12 01:45:25;;;;;;;5.65;2.60;;;;;;;;;;626633;23;1361;-78
2023/07/12 01:45:40;;;;;;;5.23;2.63;;;;;;;;;;625963;23;1263;-79
2023/07/12 01:45:55;;;;;;;5.90;2.83;;;;;;;;;;628678;23;1172;-78
2023/07/12 01:46:11;;;;;;;7.07;2.80;;;;;;;;;;625611;23;1373;-78
2023/07/12 01:46:27;;;;;;;7.47;2.60;;;;;;;;;;628822;23;1257;-78
2023/07/12 01:46:43;;;;;;;6.95;2.70;;;;;;;;;;625578;23;1268;-79
2023/07/12 01:46:58;;;;;;;7.35;2.70;;;;;;;;;;626474;23;1263;-78
2023/07/12 01:47:13;;;;;;;6.70;2.60;;;;;;;;;;622784;23;1172;-78
2023/07/12 01:47:29;;;;;;;5.97;2.70;;;;;;;;;;622793;23;1222;-79
2023/07/12 01:47:44;;;;;;;4.63;2.70;;;;;;;;;;623149;23;1263;-79
2023/07/12 01:48:00;;;;;;;6.20;2.67;;;;;;;;;;626834;23;1089;-79
2023/07/12 01:48:16;;;;;;;6.65;2.65;;;;;;;;;;626108;23;859;-78
2023/07/12 01:48:31;;;;;;;5.07;2.60;;;;;;;;;;627126;23;863;-78
2023/07/12 01:48:47;;;;;;;5.30;2.60;;;;;;;;;;627136;23;1233;-78
2023/07/12 01:49:03;;;;;;;7.90;2.72;;;;;;;;;;630807;23;891;-79
2023/07/12 01:49:18;;;;;;;11.77;2.90;;;;;;;;;;630529;23;1315;-78
2023/07/12 01:49:33;;;;;;;9.23;2.70;;;;;;;;;;626572;23;1257;-78
2023/07/12 01:49:49;;;;;;;5.03;2.43;;;;;;;;;;625501;23;955;-78
2023/07/12 01:50:05;;;;;;;4.78;2.60;;;;;;;;;;626979;23;1231;-78
2023/07/12 01:50:20;;;;;;;5.47;2.60;;;;;;;;;;627202;23;1251;-78
2023/07/12 01:50:35;;;;;;;5.10;2.60;;;;;;;;;;625816;23;1528;-78
2023/07/12 01:50:51;;;;;;;5.73;2.80;;;;;;;;;;625675;23;799;-78
2023/07/12 01:51:07;;;;;;;7.50;2.80;;;;;;;;;;625762;23;1180;-79
2023/07/12 01:51:43;;;;;;;7.65;2.70;;;;;;;;;;629225;23;1509;-79
2023/07/12 01:51:58;;;;;;;4.50;2.50;;;;;;;;;;627824;23;1162;-78